Time,TemperatureF,DewpointF,PressureIn,WindDirection,WindDirectionDegrees,WindSpeedMPH,WindSpeedGustMPH,Humidity,HourlyPrecipIn,Conditions,Clouds,dailyrainin,SoftwareType,DateUTC
2013-02-12 00:04:00,37.7,33.9,30.24,ESE,116,0.0,0.0,86,0.00,,,0.00,VWS V14.01,2013-02-12 08:04:00,
2013-02-12 00:09:00,37.3,33.5,30.25,ESE,115,0.0,0.0,86,0.00,,,0.00,VWS V14.01,2013-02-12 08:09:00,
2013-02-12 00:14:00,36.8,33.0,30.25,ESE,116,0.0,0.0,86,0.00,,,0.00,VWS V14.01,2013-02-12 08:14:00,
2013-02-12 00:19:00,36.4,32.9,30.25,ESE,115,0.0,0.0,87,0.00,,,0.00,VWS V14.01,2013-02-12 08:19:00,
2013-02-12 00:24:00,36.4,33.5,30.25,ESE,116,0.0,0.0,89,0.00,,,0.00,VWS V14.01,2013-02-12 08:24:00,
2013-02-12 00:29:00,36.5,33.6,30.25,ESE,115,0.0,1.9,89,0.00,,,0.00,VWS V14.01,2013-02-12 08:29:00,
2013-02-12 00:34:00,36.6,33.7,30.25,ESE,115,0.0,1.9,89,0.00,,,0.00,VWS V14.01,2013-02-12 08:34:00,
2013-02-12 00:39:00,36.8,33.9,30.25,ESE,115,0.0,1.9,89,0.00,,,0.00,VWS V14.01,2013-02-12 08:39:00,
2013-02-12 00:44:00,36.9,34.0,30.25,ESE,115,0.0,1.9,89,0.00,,,0.00,VWS V14.01,2013-02-12 08:44:00,
2013-02-12 00:49:00,37.0,33.8,30.25,ESE,115,0.0,1.9,88,0.00,,,0.00,VWS V14.01,2013-02-12 08:49:00,
2013-02-12 00:54:00,36.9,33.7,30.25,ESE,115,0.0,1.9,88,0.00,,,0.00,VWS V14.01,2013-02-12 08:54:00,
2013-02-12 00:59:00,36.9,33.7,30.25,ESE,115,0.0,3.8,88,0.00,,,0.00,VWS V14.01,2013-02-12 08:59:00,
2013-02-12 01:05:00,36.8,33.6,30.25,ESE,115,0.0,0.0,88,0.00,,,0.00,VWS V14.01,2013-02-12 09:05:00,
2013-02-12 01:10:00,36.8,33.6,30.25,ESE,115,0.0,1.9,88,0.00,,,0.00,VWS V14.01,2013-02-12 09:10:00,
2013-02-12 01:15:00,36.7,33.5,30.25,ESE,116,0.0,1.9,88,0.00,,,0.00,VWS V14.01,2013-02-12 09:15:00,
2013-02-12 01:20:00,36.6,33.4,30.25,ESE,115,0.0,1.9,88,0.00,,,0.00,VWS V14.01,2013-02-12 09:20:00,
2013-02-12 01:25:00,36.4,33.2,30.25,ESE,115,0.0,1.9,88,0.00,,,0.00,VWS V14.01,2013-02-12 09:25:00,
2013-02-12 01:30:00,36.3,33.1,30.25,ESE,115,0.0,0.0,88,0.00,,,0.00,VWS V14.01,2013-02-12 09:30:00,
2013-02-12 01:35:00,36.2,33.0,30.25,ESE,116,0.0,1.9,88,0.00,,,0.00,VWS V14.01,2013-02-12 09:35:00,
2013-02-12 01:40:00,36.0,32.8,30.25,ESE,113,0.0,1.9,88,0.00,,,0.00,VWS V14.01,2013-02-12 09:40:00,
2013-02-12 01:45:00,36.0,33.1,30.25,ESE,110,0.0,1.9,89,0.00,,,0.00,VWS V14.01,2013-02-12 09:45:00,
2013-02-12 01:50:00,36.0,33.1,30.25,ESE,110,0.0,1.9,89,0.00,,,0.00,VWS V14.01,2013-02-12 09:50:00,
2013-02-12 01:55:00,36.1,33.2,30.26,ESE,117,0.0,1.9,89,0.00,,,0.00,VWS V14.01,2013-02-12 09:55:00,
2013-02-12 02:00:00,36.1,33.2,30.26,ESE,119,1.9,1.9,89,0.00,,,0.00,VWS V14.01,2013-02-12 10:00:00,
2013-02-12 02:05:00,36.2,33.3,30.26,SE,133,0.0,1.9,89,0.00,,,0.00,VWS V14.01,2013-02-12 10:05:00,
2013-02-12 02:10:00,36.4,33.5,30.26,ESE,120,0.0,1.9,89,0.00,,,0.00,VWS V14.01,2013-02-12 10:10:00,
2013-02-12 02:15:00,36.3,33.4,30.26,ESE,120,0.0,1.9,89,0.00,,,0.00,VWS V14.01,2013-02-12 10:15:00,
2013-02-12 02:20:00,36.1,33.2,30.26,ESE,111,0.0,1.9,89,0.00,,,0.00,VWS V14.01,2013-02-12 10:20:00,
2013-02-12 02:26:00,36.1,33.2,30.26,ESE,111,0.0,0.0,89,0.00,,,0.00,VWS V14.01,2013-02-12 10:26:00,
2013-02-12 02:31:00,35.9,33.0,30.26,ESE,113,0.0,0.0,89,0.00,,,0.00,VWS V14.01,2013-02-12 10:31:00,
2013-02-12 02:36:00,35.7,32.8,30.26,ESE,113,0.0,0.0,89,0.00,,,0.00,VWS V14.01,2013-02-12 10:36:00,
2013-02-12 02:41:00,35.5,32.9,30.26,ESE,113,0.0,0.0,90,0.00,,,0.00,VWS V14.01,2013-02-12 10:41:00,
2013-02-12 02:46:00,35.2,32.6,30.26,ESE,113,0.0,0.0,90,0.00,,,0.00,VWS V14.01,2013-02-12 10:46:00,
2013-02-12 02:51:00,35.0,32.4,30.26,ESE,111,0.0,0.0,90,0.00,,,0.00,VWS V14.01,2013-02-12 10:51:00,
2013-02-12 02:56:00,34.6,31.7,30.26,ESE,113,0.0,0.0,89,0.00,,,0.00,VWS V14.01,2013-02-12 10:56:00,
2013-02-12 03:01:00,34.4,31.8,30.26,ESE,113,0.0,0.0,90,0.00,,,0.00,VWS V14.01,2013-02-12 11:01:00,
2013-02-12 03:06:00,33.9,31.3,30.26,ESE,113,0.0,0.0,90,0.00,,,0.00,VWS V14.01,2013-02-12 11:06:00,
2013-02-12 03:11:00,33.5,30.9,30.26,ESE,113,0.0,0.0,90,0.00,,,0.00,VWS V14.01,2013-02-12 11:11:00,
2013-02-12 03:16:00,33.5,31.2,30.26,ESE,113,0.0,0.0,91,0.00,,,0.00,VWS V14.01,2013-02-12 11:16:00,
2013-02-12 03:21:00,33.6,31.5,30.26,ESE,113,0.0,0.0,92,0.00,,,0.00,VWS V14.01,2013-02-12 11:21:00,
2013-02-12 03:26:00,33.7,31.6,30.26,ESE,111,0.0,1.9,92,0.00,,,0.00,VWS V14.01,2013-02-12 11:26:00,
2013-02-12 03:32:00,33.7,31.6,30.26,ESE,111,0.0,1.9,92,0.00,,,0.00,VWS V14.01,2013-02-12 11:32:00,
2013-02-12 03:37:00,33.8,31.7,30.26,ESE,105,1.9,1.9,92,0.00,,,0.00,VWS V14.01,2013-02-12 11:37:00,
2013-02-12 03:42:00,33.7,31.4,30.26,ESE,105,0.0,1.9,91,0.00,,,0.00,VWS V14.01,2013-02-12 11:42:00,
2013-02-12 03:47:00,33.7,31.4,30.26,ESE,106,1.9,1.9,91,0.00,,,0.00,VWS V14.01,2013-02-12 11:47:00,
2013-02-12 03:52:00,33.8,31.5,30.26,ESE,106,0.0,1.9,91,0.00,,,0.00,VWS V14.01,2013-02-12 11:52:00,
2013-02-12 03:57:00,33.8,31.5,30.26,ESE,106,0.0,1.9,91,0.00,,,0.00,VWS V14.01,2013-02-12 11:57:00,
2013-02-12 04:02:00,33.9,31.6,30.26,ESE,105,0.0,1.9,91,0.00,,,0.00,VWS V14.01,2013-02-12 12:02:00,
2013-02-12 04:07:00,33.7,31.1,30.27,ESE,104,0.0,1.9,90,0.00,,,0.00,VWS V14.01,2013-02-12 12:07:00,
2013-02-12 04:12:00,33.5,31.2,30.27,ESE,105,0.0,1.9,91,0.00,,,0.00,VWS V14.01,2013-02-12 12:12:00,
2013-02-12 04:17:00,33.3,31.0,30.27,ESE,104,0.0,1.9,91,0.00,,,0.00,VWS V14.01,2013-02-12 12:17:00,
2013-02-12 04:22:00,32.9,30.3,30.27,ESE,104,0.0,1.9,90,0.00,,,0.00,VWS V14.01,2013-02-12 12:22:00,
2013-02-12 04:27:00,32.5,30.2,30.27,ESE,104,0.0,1.9,91,0.00,,,0.00,VWS V14.01,2013-02-12 12:27:00,
2013-02-12 04:32:00,32.2,29.9,30.27,ESE,105,0.0,0.0,91,0.00,,,0.00,VWS V14.01,2013-02-12 12:32:00,
2013-02-12 04:37:00,32.0,29.7,30.28,ESE,104,0.0,0.0,91,0.00,,,0.00,VWS V14.01,2013-02-12 12:37:00,
2013-02-12 04:43:00,32.1,30.0,30.28,ESE,104,0.0,0.0,92,0.00,,,0.00,VWS V14.01,2013-02-12 12:43:00,
2013-02-12 04:48:00,32.5,30.7,30.28,ESE,105,0.0,1.9,93,0.00,,,0.00,VWS V14.01,2013-02-12 12:48:00,
2013-02-12 04:53:00,32.8,31.0,30.28,ESE,111,0.0,1.9,93,0.00,,,0.00,VWS V14.01,2013-02-12 12:53:00,
2013-02-12 04:58:00,32.9,30.8,30.28,ESE,111,1.9,1.9,92,0.00,,,0.00,VWS V14.01,2013-02-12 12:58:00,
2013-02-12 05:03:00,32.9,30.8,30.28,SE,126,0.0,1.9,92,0.00,,,0.00,VWS V14.01,2013-02-12 13:03:00,
2013-02-12 05:08:00,33.0,30.9,30.28,SE,124,0.0,1.9,92,0.00,,,0.00,VWS V14.01,2013-02-12 13:08:00,
2013-02-12 05:13:00,33.1,31.0,30.29,SE,124,0.0,1.9,92,0.00,,,0.00,VWS V14.01,2013-02-12 13:13:00,
2013-02-12 05:18:00,33.0,30.7,30.29,SE,124,0.0,1.9,91,0.00,,,0.00,VWS V14.01,2013-02-12 13:18:00,
2013-02-12 05:23:00,33.0,30.9,30.29,SE,124,0.0,1.9,92,0.00,,,0.00,VWS V14.01,2013-02-12 13:23:00,
2013-02-12 05:28:00,32.9,30.6,30.29,SE,124,0.0,1.9,91,0.00,,,0.00,VWS V14.01,2013-02-12 13:28:00,
2013-02-12 05:33:00,32.6,30.3,30.29,SE,124,0.0,0.0,91,0.00,,,0.00,VWS V14.01,2013-02-12 13:33:00,
2013-02-12 05:38:00,32.4,30.3,30.29,SE,124,0.0,0.0,92,0.00,,,0.00,VWS V14.01,2013-02-12 13:38:00,
2013-02-12 05:43:00,32.4,30.3,30.30,SE,124,0.0,0.0,92,0.00,,,0.00,VWS V14.01,2013-02-12 13:43:00,
2013-02-12 05:48:00,32.4,30.3,30.30,SE,124,0.0,0.0,92,0.00,,,0.00,VWS V14.01,2013-02-12 13:48:00,
2013-02-12 05:53:00,32.2,30.1,30.30,SE,124,0.0,0.0,92,0.00,,,0.00,VWS V14.01,2013-02-12 13:53:00,
2013-02-12 05:58:00,32.0,29.9,30.30,SE,124,0.0,0.0,92,0.00,,,0.00,VWS V14.01,2013-02-12 13:58:00,
2013-02-12 06:03:00,31.7,29.6,30.30,SE,124,0.0,0.0,92,0.00,,,0.00,VWS V14.01,2013-02-12 14:03:00,
2013-02-12 06:08:00,31.5,29.5,30.31,SE,124,0.0,0.0,92,0.00,,,0.00,VWS V14.01,2013-02-12 14:08:00,
2013-02-12 06:14:00,31.4,29.4,30.31,SE,124,0.0,0.0,92,0.00,,,0.00,VWS V14.01,2013-02-12 14:14:00,
2013-02-12 06:19:00,31.3,29.5,30.31,SE,124,0.0,0.0,93,0.00,,,0.00,VWS V14.01,2013-02-12 14:19:00,
2013-02-12 06:24:00,31.4,29.6,30.31,SE,124,0.0,0.0,93,0.00,,,0.00,VWS V14.01,2013-02-12 14:24:00,
2013-02-12 06:29:00,31.6,29.8,30.32,ESE,123,0.0,0.0,93,0.00,,,0.00,VWS V14.01,2013-02-12 14:29:00,
2013-02-12 06:34:00,31.7,29.9,30.32,SE,124,0.0,1.9,93,0.00,,,0.00,VWS V14.01,2013-02-12 14:34:00,
2013-02-12 06:39:00,31.8,30.0,30.32,SE,124,0.0,1.9,93,0.00,,,0.00,VWS V14.01,2013-02-12 14:39:00,
2013-02-12 06:44:00,31.8,30.0,30.32,SE,124,0.0,1.9,93,0.00,,,0.00,VWS V14.01,2013-02-12 14:44:00,
2013-02-12 06:49:00,31.9,30.1,30.32,SE,124,0.0,1.9,93,0.00,,,0.00,VWS V14.01,2013-02-12 14:49:00,
2013-02-12 06:54:00,32.0,30.2,30.33,ESE,119,0.0,1.9,93,0.00,,,0.00,VWS V14.01,2013-02-12 14:54:00,
2013-02-12 06:59:00,32.1,30.3,30.33,ESE,118,0.0,1.9,93,0.00,,,0.00,VWS V14.01,2013-02-12 14:59:00,
2013-02-12 07:04:00,32.3,30.5,30.33,East,97,0.0,3.8,93,0.00,,,0.00,VWS V14.01,2013-02-12 15:04:00,
2013-02-12 07:09:00,32.3,30.2,30.33,East,98,0.0,3.8,92,0.00,,,0.00,VWS V14.01,2013-02-12 15:09:00,
2013-02-12 07:14:00,32.1,30.0,30.34,East,98,0.0,3.8,92,0.00,,,0.00,VWS V14.01,2013-02-12 15:14:00,
2013-02-12 07:19:00,32.1,30.3,30.34,East,99,0.0,3.8,93,0.00,,,0.00,VWS V14.01,2013-02-12 15:19:00,
2013-02-12 07:24:00,32.3,30.5,30.34,East,98,0.0,3.8,93,0.00,,,0.00,VWS V14.01,2013-02-12 15:24:00,
2013-02-12 07:29:00,32.6,30.8,30.34,East,99,0.0,3.8,93,0.00,,,0.00,VWS V14.01,2013-02-12 15:29:00,
2013-02-12 07:34:00,33.2,31.4,30.35,East,99,0.0,0.0,93,0.00,,,0.00,VWS V14.01,2013-02-12 15:34:00,
2013-02-12 07:39:00,33.7,31.9,30.35,East,98,0.0,1.9,93,0.00,,,0.00,VWS V14.01,2013-02-12 15:39:00,
2013-02-12 07:44:00,34.0,31.9,30.35,East,98,0.0,1.9,92,0.00,,,0.00,VWS V14.01,2013-02-12 15:44:00,
2013-02-12 07:49:00,34.2,32.1,30.35,East,99,0.0,1.9,92,0.00,,,0.00,VWS V14.01,2013-02-12 15:49:00,
2013-02-12 07:54:00,34.6,32.5,30.35,East,99,0.0,1.9,92,0.00,,,0.00,VWS V14.01,2013-02-12 15:54:00,
2013-02-12 07:59:00,35.3,33.2,30.36,SE,143,1.9,1.9,92,0.00,,,0.00,VWS V14.01,2013-02-12 15:59:00,
2013-02-12 08:04:00,36.0,33.6,30.36,SE,142,0.0,0.0,91,0.00,,,0.00,VWS V14.01,2013-02-12 16:04:00,
2013-02-12 08:09:00,36.9,34.2,30.36,SE,142,0.0,0.0,90,0.00,,,0.00,VWS V14.01,2013-02-12 16:09:00,
2013-02-12 08:15:00,37.7,34.5,30.36,SE,141,0.0,1.9,88,0.00,,,0.00,VWS V14.01,2013-02-12 16:15:00,
2013-02-12 08:20:00,38.3,34.5,30.36,South,169,0.0,1.9,86,0.00,,,0.00,VWS V14.01,2013-02-12 16:20:00,
2013-02-12 08:25:00,38.5,34.7,30.36,WSW,256,0.0,3.8,86,0.00,,,0.00,VWS V14.01,2013-02-12 16:25:00,
2013-02-12 08:30:00,38.8,35.0,30.36,WSW,252,0.0,3.8,86,0.00,,,0.00,VWS V14.01,2013-02-12 16:30:00,
2013-02-12 08:35:00,39.2,35.7,30.36,WSW,252,0.0,0.0,87,0.00,,,0.00,VWS V14.01,2013-02-12 16:35:00,
2013-02-12 08:40:00,39.7,35.9,30.37,WSW,252,0.0,1.9,86,0.00,,,0.00,VWS V14.01,2013-02-12 16:40:00,
2013-02-12 08:45:00,40.3,36.5,30.36,SSW,212,0.0,1.9,86,0.00,,,0.00,VWS V14.01,2013-02-12 16:45:00,
2013-02-12 08:50:00,40.7,36.5,30.36,SSW,208,1.9,1.9,85,0.00,,,0.00,VWS V14.01,2013-02-12 16:50:00,
2013-02-12 08:55:00,41.3,37.1,30.37,SW,217,0.0,3.8,85,0.00,,,0.00,VWS V14.01,2013-02-12 16:55:00,
2013-02-12 09:00:00,42.1,37.6,30.37,SSW,207,1.9,1.9,84,0.00,,,0.00,VWS V14.01,2013-02-12 17:00:00,
2013-02-12 09:05:00,42.7,37.6,30.36,SSE,149,0.0,1.9,82,0.00,,FEW003,0.00,VWS V14.01,2013-02-12 17:05:00,
2013-02-12 09:10:00,43.5,38.1,30.37,East,93,1.9,1.9,81,0.00,,FEW003,0.00,VWS V14.01,2013-02-12 17:10:00,
2013-02-12 09:15:00,43.7,38.0,30.37,WSW,246,0.0,1.9,80,0.00,,FEW003,0.00,VWS V14.01,2013-02-12 17:15:00,
2013-02-12 09:20:00,43.4,37.7,30.37,West,277,1.9,3.8,80,0.00,,FEW003,0.00,VWS V14.01,2013-02-12 17:20:00,
2013-02-12 09:25:00,43.5,38.4,30.37,SSW,208,0.0,3.8,82,0.00,,FEW003,0.00,VWS V14.01,2013-02-12 17:25:00,
2013-02-12 09:30:00,44.2,38.8,30.37,West,277,0.0,1.9,81,0.00,,FEW003,0.00,VWS V14.01,2013-02-12 17:30:00,
2013-02-12 09:35:00,44.8,39.3,30.37,WSW,252,1.9,3.8,81,0.00,,FEW003,0.00,VWS V14.01,2013-02-12 17:35:00,
2013-02-12 09:40:00,45.1,39.0,30.37,SSW,198,1.9,5.7,79,0.00,,FEW003,0.00,VWS V14.01,2013-02-12 17:40:00,
2013-02-12 09:45:00,45.4,39.3,30.37,West,274,3.8,5.7,79,0.00,,FEW003,0.00,VWS V14.01,2013-02-12 17:45:00,
2013-02-12 09:50:00,45.6,39.8,30.37,WSW,252,0.0,5.7,80,0.00,,FEW003,0.00,VWS V14.01,2013-02-12 17:50:00,
2013-02-12 09:56:00,46.0,39.9,30.37,SSW,198,3.8,5.7,79,0.00,,FEW003,0.00,VWS V14.01,2013-02-12 17:56:00,
2013-02-12 10:01:00,46.3,39.8,30.37,West,271,1.9,3.8,78,0.00,,FEW003,0.00,VWS V14.01,2013-02-12 18:01:00,
2013-02-12 10:06:00,46.5,40.0,30.37,West,273,0.0,5.7,78,0.00,,FEW250,0.00,VWS V14.01,2013-02-12 18:06:00,
2013-02-12 10:11:00,46.9,40.7,30.37,SW,232,1.9,5.7,79,0.00,,FEW250,0.00,VWS V14.01,2013-02-12 18:11:00,
2013-02-12 10:16:00,47.5,41.0,30.37,South,183,5.7,7.6,78,0.00,,FEW250,0.00,VWS V14.01,2013-02-12 18:16:00,
2013-02-12 10:21:00,47.7,40.8,30.37,WSW,245,0.0,7.6,77,0.00,,FEW250,0.00,VWS V14.01,2013-02-12 18:21:00,
2013-02-12 10:26:00,48.1,41.2,30.37,West,262,1.9,7.6,77,0.00,,FEW250,0.00,VWS V14.01,2013-02-12 18:26:00,
2013-02-12 10:31:00,48.5,41.3,30.37,SSW,203,0.0,5.7,76,0.00,,FEW250,0.00,VWS V14.01,2013-02-12 18:31:00,
2013-02-12 10:36:00,49.1,41.9,30.37,SSW,211,1.9,5.7,76,0.00,,FEW250,0.00,VWS V14.01,2013-02-12 18:36:00,
2013-02-12 10:41:00,49.9,42.3,30.37,WSW,248,1.9,5.7,75,0.00,,FEW250,0.00,VWS V14.01,2013-02-12 18:41:00,
2013-02-12 10:46:00,50.0,42.4,30.37,SSW,203,3.8,7.6,75,0.00,,FEW250,0.00,VWS V14.01,2013-02-12 18:46:00,
2013-02-12 10:51:00,50.5,42.5,30.37,West,281,0.0,7.6,74,0.00,,FEW250,0.00,VWS V14.01,2013-02-12 18:51:00,
2013-02-12 10:56:00,50.9,42.6,30.37,West,271,3.8,7.6,73,0.00,,FEW250,0.00,VWS V14.01,2013-02-12 18:56:00,
2013-02-12 11:01:00,51.2,42.9,30.37,SSW,208,1.9,3.8,73,0.00,,FEW250,0.00,VWS V14.01,2013-02-12 19:01:00,
2013-02-12 11:06:00,51.8,43.4,30.37,SSW,208,3.8,3.8,73,0.00,,SCT250,0.00,VWS V14.01,2013-02-12 19:06:00,
2013-02-12 11:11:00,52.5,43.4,30.37,SSW,212,1.9,5.7,71,0.00,,SCT250,0.00,VWS V14.01,2013-02-12 19:11:00,
2013-02-12 11:16:00,52.7,42.8,30.37,WSW,257,5.7,7.6,69,0.00,,SCT250,0.00,VWS V14.01,2013-02-12 19:16:00,
2013-02-12 11:21:00,52.8,42.5,30.37,West,271,5.7,9.5,68,0.00,,SCT250,0.00,VWS V14.01,2013-02-12 19:21:00,
2013-02-12 11:26:00,52.7,42.8,30.36,West,259,1.9,9.5,69,0.00,,SCT250,0.00,VWS V14.01,2013-02-12 19:26:00,
2013-02-12 11:31:00,53.2,42.9,30.37,West,267,3.8,5.7,68,0.00,,SCT250,0.00,VWS V14.01,2013-02-12 19:31:00,
2013-02-12 11:36:00,53.7,43.4,30.36,SSE,166,3.8,5.7,68,0.00,,SCT250,0.00,VWS V14.01,2013-02-12 19:36:00,
2013-02-12 11:41:00,54.3,42.8,30.36,West,266,3.8,7.6,65,0.00,,SCT250,0.00,VWS V14.01,2013-02-12 19:41:00,
2013-02-12 11:47:00,54.3,43.2,30.36,WSW,258,1.9,9.5,66,0.00,,SCT250,0.00,VWS V14.01,2013-02-12 19:47:00,
2013-02-12 11:52:00,54.5,43.0,30.36,NE,40,1.9,9.5,65,0.00,,SCT250,0.00,VWS V14.01,2013-02-12 19:52:00,
2013-02-12 11:57:00,54.9,43.4,30.36,West,269,3.8,9.5,65,0.00,,SCT250,0.00,VWS V14.01,2013-02-12 19:57:00,
2013-02-12 12:02:00,55.1,44.0,30.35,SSW,204,0.0,3.8,66,0.00,,SCT250,0.00,VWS V14.01,2013-02-12 20:02:00,
2013-02-12 12:07:00,55.6,43.6,30.35,WNW,284,3.8,9.5,64,0.00,,SCT250,0.00,VWS V14.01,2013-02-12 20:07:00,
2013-02-12 12:12:00,56.1,44.1,30.35,WNW,286,7.6,9.5,64,0.00,,SCT250,0.00,VWS V14.01,2013-02-12 20:12:00,
2013-02-12 12:17:00,56.4,44.8,30.35,West,267,1.9,9.5,65,0.00,,SCT250,0.00,VWS V14.01,2013-02-12 20:17:00,
2013-02-12 12:22:00,56.8,43.9,30.35,NW,307,3.8,9.5,62,0.00,,SCT250,0.00,VWS V14.01,2013-02-12 20:22:00,
2013-02-12 12:27:00,57.1,44.6,30.35,West,262,5.7,9.5,63,0.00,,SCT250,0.00,VWS V14.01,2013-02-12 20:27:00,
2013-02-12 12:32:00,57.1,44.2,30.35,West,269,3.8,7.6,62,0.00,,SCT250,0.00,VWS V14.01,2013-02-12 20:32:00,
2013-02-12 12:37:00,57.2,44.3,30.35,West,273,7.6,9.5,62,0.00,,SCT250,0.00,VWS V14.01,2013-02-12 20:37:00,
2013-02-12 12:42:00,57.1,44.6,30.35,East,97,1.9,9.5,63,0.00,,SCT250,0.00,VWS V14.01,2013-02-12 20:42:00,
2013-02-12 12:47:00,57.7,45.6,30.34,WSW,239,1.9,9.5,64,0.00,,SCT250,0.00,VWS V14.01,2013-02-12 20:47:00,
2013-02-12 12:52:00,58.0,45.5,30.34,SSW,202,3.8,11.4,63,0.00,,SCT250,0.00,VWS V14.01,2013-02-12 20:52:00,
2013-02-12 12:57:00,58.4,45.0,30.34,West,269,5.7,11.4,61,0.00,,SCT250,0.00,VWS V14.01,2013-02-12 20:57:00,
2013-02-12 13:02:00,58.3,45.3,30.34,SW,236,1.9,9.5,62,0.00,,SCT250,0.00,VWS V14.01,2013-02-12 21:02:00,
2013-02-12 13:07:00,58.4,44.1,30.34,West,264,5.7,11.4,59,0.00,,SCT250,0.00,VWS V14.01,2013-02-12 21:07:00,
2013-02-12 13:13:00,58.4,44.1,30.34,SE,132,3.8,11.4,59,0.00,,SCT250,0.00,VWS V14.01,2013-02-12 21:13:00,
2013-02-12 13:18:00,59.0,43.8,30.34,WSW,255,1.9,11.4,57,0.00,,SCT250,0.00,VWS V14.01,2013-02-12 21:18:00,
2013-02-12 13:23:00,58.8,43.6,30.34,SSW,208,9.5,11.4,57,0.00,,SCT250,0.00,VWS V14.01,2013-02-12 21:23:00,
2013-02-12 13:28:00,58.9,44.6,30.33,SSW,204,1.9,11.4,59,0.00,,SCT250,0.00,VWS V14.01,2013-02-12 21:28:00,
2013-02-12 13:33:00,59.5,44.7,30.33,SW,218,3.8,3.8,58,0.00,,SCT250,0.00,VWS V14.01,2013-02-12 21:33:00,
2013-02-12 13:38:00,60.0,44.3,30.33,WSW,243,1.9,9.5,56,0.00,,SCT250,0.00,VWS V14.01,2013-02-12 21:38:00,
2013-02-12 13:43:00,60.4,44.7,30.33,SW,222,3.8,9.5,56,0.00,,SCT250,0.00,VWS V14.01,2013-02-12 21:43:00,
2013-02-12 13:48:00,60.7,44.9,30.33,SSW,203,1.9,9.5,56,0.00,,SCT250,0.00,VWS V14.01,2013-02-12 21:48:00,
2013-02-12 13:53:00,60.9,45.1,30.33,SSW,203,5.7,9.5,56,0.00,,SCT250,0.00,VWS V14.01,2013-02-12 21:53:00,
2013-02-12 13:58:00,61.5,44.7,30.32,West,269,1.9,9.5,54,0.00,,SCT250,0.00,VWS V14.01,2013-02-12 21:58:00,
2013-02-12 14:03:00,61.8,45.0,30.32,South,190,0.0,7.6,54,0.00,,FEW250,0.00,VWS V14.01,2013-02-12 22:03:00,
2013-02-12 14:08:00,61.8,44.5,30.32,WSW,239,1.9,9.5,53,0.00,,FEW250,0.00,VWS V14.01,2013-02-12 22:08:00,
2013-02-12 14:13:00,61.9,45.1,30.32,WSW,240,1.9,9.5,54,0.00,,FEW250,0.00,VWS V14.01,2013-02-12 22:13:00,
2013-02-12 14:18:00,62.2,44.4,30.32,South,176,1.9,9.5,52,0.00,,FEW250,0.00,VWS V14.01,2013-02-12 22:18:00,
2013-02-12 14:23:00,62.4,44.0,30.32,SW,226,0.0,9.5,51,0.00,,FEW250,0.00,VWS V14.01,2013-02-12 22:23:00,
2013-02-12 14:28:00,62.5,43.6,30.31,SSW,205,1.9,9.5,50,0.00,,FEW250,0.00,VWS V14.01,2013-02-12 22:28:00,
2013-02-12 14:33:00,62.6,43.7,30.31,SSW,209,3.8,7.6,50,0.00,,FEW250,0.00,VWS V14.01,2013-02-12 22:33:00,
2013-02-12 14:38:00,62.6,43.7,30.31,WNW,292,1.9,7.6,50,0.00,,FEW250,0.00,VWS V14.01,2013-02-12 22:38:00,
2013-02-12 14:43:00,62.7,43.3,30.31,SSW,199,3.8,9.5,49,0.00,,FEW250,0.00,VWS V14.01,2013-02-12 22:43:00,
2013-02-12 14:49:00,62.8,44.4,30.31,SW,236,0.0,9.5,51,0.00,,FEW250,0.00,VWS V14.01,2013-02-12 22:49:00,
2013-02-12 14:54:00,63.2,44.3,30.31,West,274,3.8,9.5,50,0.00,,FEW250,0.00,VWS V14.01,2013-02-12 22:54:00,
2013-02-12 14:59:00,62.9,46.0,30.31,WSW,240,5.7,9.5,54,0.00,,FEW250,0.00,VWS V14.01,2013-02-12 22:59:00,
2013-02-12 15:04:00,62.4,46.5,30.31,SW,228,3.8,9.5,56,0.00,,SCT250,0.00,VWS V14.01,2013-02-12 23:04:00,
2013-02-12 15:09:00,61.9,46.0,30.31,West,267,1.9,11.4,56,0.00,,SCT250,0.00,VWS V14.01,2013-02-12 23:09:00,
2013-02-12 15:14:00,61.5,46.1,30.31,WSW,244,9.5,11.4,57,0.00,,SCT250,0.00,VWS V14.01,2013-02-12 23:14:00,
2013-02-12 15:19:00,61.2,45.9,30.31,West,270,1.9,11.4,57,0.00,,SCT250,0.00,VWS V14.01,2013-02-12 23:19:00,
2013-02-12 15:24:00,61.0,46.1,30.31,SSW,210,3.8,11.4,58,0.00,,SCT250,0.00,VWS V14.01,2013-02-12 23:24:00,
2013-02-12 15:29:00,60.8,46.0,30.31,SW,224,3.8,11.4,58,0.00,,SCT250,0.00,VWS V14.01,2013-02-12 23:29:00,
2013-02-12 15:34:00,60.7,46.3,30.31,SSW,204,5.7,9.5,59,0.00,,SCT250,0.00,VWS V14.01,2013-02-12 23:34:00,
2013-02-12 15:39:00,60.6,46.2,30.31,West,274,3.8,11.4,59,0.00,,SCT250,0.00,VWS V14.01,2013-02-12 23:39:00,
2013-02-12 15:44:00,60.4,46.0,30.31,SW,224,0.0,11.4,59,0.00,,SCT250,0.00,VWS V14.01,2013-02-12 23:44:00,
2013-02-12 15:49:00,60.1,46.2,30.31,South,180,1.9,11.4,60,0.00,,SCT250,0.00,VWS V14.01,2013-02-12 23:49:00,
2013-02-12 15:54:00,60.1,46.6,30.31,SSW,203,3.8,11.4,61,0.00,,SCT250,0.00,VWS V14.01,2013-02-12 23:54:00,
2013-02-12 15:59:00,60.0,46.5,30.31,WSW,246,3.8,11.4,61,0.00,,SCT250,0.00,VWS V14.01,2013-02-12 23:59:00,
2013-02-12 16:04:00,59.8,46.8,30.31,SSW,212,5.7,9.5,62,0.00,,CLR,0.00,VWS V14.01,2013-02-13 00:04:00,
2013-02-12 16:09:00,59.5,46.9,30.30,WSW,249,1.9,9.5,63,0.00,,CLR,0.00,VWS V14.01,2013-02-13 00:09:00,
2013-02-12 16:15:00,59.2,47.0,30.30,SSW,211,1.9,13.3,64,0.00,,CLR,0.00,VWS V14.01,2013-02-13 00:15:00,
2013-02-12 16:20:00,59.0,47.3,30.30,SSW,203,7.6,13.3,65,0.00,,CLR,0.00,VWS V14.01,2013-02-13 00:20:00,
2013-02-12 16:25:00,58.8,47.5,30.30,SW,231,3.8,13.3,66,0.00,,CLR,0.00,VWS V14.01,2013-02-13 00:25:00,
2013-02-12 16:30:00,58.8,47.1,30.30,SW,233,1.9,1.9,65,0.00,,CLR,0.00,VWS V14.01,2013-02-13 00:30:00,
2013-02-12 16:35:00,58.6,46.9,30.30,SW,219,3.8,9.5,65,0.00,,CLR,0.00,VWS V14.01,2013-02-13 00:35:00,
2013-02-12 16:40:00,58.3,46.6,30.31,SSW,203,3.8,9.5,65,0.00,,CLR,0.00,VWS V14.01,2013-02-13 00:40:00,
2013-02-12 16:45:00,58.2,46.5,30.31,SSW,197,1.9,9.5,65,0.00,,CLR,0.00,VWS V14.01,2013-02-13 00:45:00,
2013-02-12 16:50:00,58.1,46.4,30.31,West,264,1.9,9.5,65,0.00,,CLR,0.00,VWS V14.01,2013-02-13 00:50:00,
2013-02-12 16:55:00,57.8,46.1,30.31,WNW,297,3.8,9.5,65,0.00,,CLR,0.00,VWS V14.01,2013-02-13 00:55:00,
2013-02-12 17:00:00,57.6,46.3,30.31,SSW,205,0.0,1.9,66,0.00,,CLR,0.00,VWS V14.01,2013-02-13 01:00:00,
2013-02-12 17:05:00,57.4,46.2,30.31,ENE,58,1.9,7.6,66,0.00,,CLR,0.00,VWS V14.01,2013-02-13 01:05:00,
2013-02-12 17:10:00,57.0,45.8,30.31,SW,217,1.9,9.5,66,0.00,,CLR,0.00,VWS V14.01,2013-02-13 01:10:00,
2013-02-12 17:15:00,56.7,46.3,30.31,WSW,255,1.9,9.5,68,0.00,,CLR,0.00,VWS V14.01,2013-02-13 01:15:00,
2013-02-12 17:21:00,56.3,45.9,30.31,West,265,0.0,9.5,68,0.00,,CLR,0.00,VWS V14.01,2013-02-13 01:21:00,
2013-02-12 17:26:00,55.8,46.2,30.31,West,274,0.0,9.5,70,0.00,,CLR,0.00,VWS V14.01,2013-02-13 01:26:00,
2013-02-12 17:31:00,55.6,46.4,30.31,WSW,250,1.9,1.9,71,0.00,,CLR,0.00,VWS V14.01,2013-02-13 01:31:00,
2013-02-12 17:36:00,55.1,46.2,30.31,SSW,194,1.9,5.7,72,0.00,,CLR,0.00,VWS V14.01,2013-02-13 01:36:00,
2013-02-12 17:41:00,54.6,46.1,30.31,SSW,198,5.7,7.6,73,0.00,,CLR,0.00,VWS V14.01,2013-02-13 01:41:00,
2013-02-12 17:46:00,54.2,46.5,30.31,SSW,204,0.0,7.6,75,0.00,,CLR,0.00,VWS V14.01,2013-02-13 01:46:00,
2013-02-12 17:51:00,53.7,46.3,30.31,SW,214,0.0,7.6,76,0.00,,CLR,0.00,VWS V14.01,2013-02-13 01:51:00,
2013-02-12 17:56:00,53.4,46.0,30.31,SW,233,0.0,7.6,76,0.00,,CLR,0.00,VWS V14.01,2013-02-13 01:56:00,
2013-02-12 18:01:00,52.9,45.9,30.31,SW,233,0.0,1.9,77,0.00,,CLR,0.00,VWS V14.01,2013-02-13 02:01:00,
2013-02-12 18:06:00,52.5,45.8,30.31,SSW,207,0.0,3.8,78,0.00,,CLR,0.00,VWS V14.01,2013-02-13 02:06:00,
2013-02-12 18:11:00,52.2,45.6,30.31,SSW,207,0.0,3.8,78,0.00,,CLR,0.00,VWS V14.01,2013-02-13 02:11:00,
2013-02-12 18:16:00,51.9,45.6,30.31,SSW,205,0.0,3.8,79,0.00,,CLR,0.00,VWS V14.01,2013-02-13 02:16:00,
2013-02-12 18:21:00,51.7,45.4,30.31,SSW,207,0.0,3.8,79,0.00,,CLR,0.00,VWS V14.01,2013-02-13 02:21:00,
2013-02-12 18:26:00,51.5,45.2,30.31,SSW,207,0.0,3.8,79,0.00,,CLR,0.00,VWS V14.01,2013-02-13 02:26:00,
2013-02-12 18:31:00,50.9,45.0,30.31,East,99,0.0,1.9,80,0.00,,CLR,0.00,VWS V14.01,2013-02-13 02:31:00,
2013-02-12 18:36:00,50.8,44.9,30.31,ESE,108,1.9,1.9,80,0.00,,CLR,0.00,VWS V14.01,2013-02-13 02:36:00,
2013-02-12 18:41:00,51.0,45.1,30.31,ESE,120,0.0,5.7,80,0.00,,CLR,0.00,VWS V14.01,2013-02-13 02:41:00,
2013-02-12 18:46:00,51.0,44.7,30.31,ESE,120,0.0,5.7,79,0.00,,CLR,0.00,VWS V14.01,2013-02-13 02:46:00,
2013-02-12 18:51:00,51.0,44.7,30.31,SE,126,1.9,5.7,79,0.00,,CLR,0.00,VWS V14.01,2013-02-13 02:51:00,
2013-02-12 18:56:00,50.9,45.0,30.31,ESE,110,1.9,5.7,80,0.00,,CLR,0.00,VWS V14.01,2013-02-13 02:56:00,
2013-02-12 19:01:00,50.9,45.0,30.32,East,88,3.8,3.8,80,0.00,,CLR,0.00,VWS V14.01,2013-02-13 03:01:00,
2013-02-12 19:06:00,50.8,44.9,30.31,ESE,103,0.0,7.6,80,0.00,,CLR,0.00,VWS V14.01,2013-02-13 03:06:00,
2013-02-12 19:12:00,50.7,44.8,30.31,SE,126,0.0,7.6,80,0.00,,CLR,0.00,VWS V14.01,2013-02-13 03:12:00,
2013-02-12 19:17:00,50.5,44.6,30.31,ESE,117,0.0,7.6,80,0.00,,CLR,0.00,VWS V14.01,2013-02-13 03:17:00,
2013-02-12 19:22:00,50.2,44.3,30.31,SE,131,0.0,7.6,80,0.00,,CLR,0.00,VWS V14.01,2013-02-13 03:22:00,
2013-02-12 19:27:00,49.8,44.2,30.31,ESE,118,0.0,7.6,81,0.00,,CLR,0.00,VWS V14.01,2013-02-13 03:27:00,
2013-02-12 19:32:00,49.5,43.9,30.31,ESE,118,0.0,1.9,81,0.00,,CLR,0.00,VWS V14.01,2013-02-13 03:32:00,
2013-02-12 19:37:00,49.2,43.6,30.31,ESE,117,0.0,1.9,81,0.00,,CLR,0.00,VWS V14.01,2013-02-13 03:37:00,
2013-02-12 19:42:00,48.9,43.7,30.32,ESE,115,0.0,1.9,82,0.00,,CLR,0.00,VWS V14.01,2013-02-13 03:42:00,
2013-02-12 19:47:00,48.4,43.2,30.32,ESE,115,0.0,1.9,82,0.00,,CLR,0.00,VWS V14.01,2013-02-13 03:47:00,
2013-02-12 19:52:00,48.0,43.1,30.32,ESE,116,0.0,1.9,83,0.00,,CLR,0.00,VWS V14.01,2013-02-13 03:52:00,
2013-02-12 19:57:00,47.4,42.2,30.32,ESE,116,0.0,1.9,82,0.00,,CLR,0.00,VWS V14.01,2013-02-13 03:57:00,
2013-02-12 20:02:00,46.9,42.3,30.32,ESE,116,0.0,0.0,84,0.00,,CLR,0.00,VWS V14.01,2013-02-13 04:02:00,
2013-02-12 20:07:00,46.4,42.1,30.32,ESE,115,0.0,0.0,85,0.00,,CLR,0.00,VWS V14.01,2013-02-13 04:07:00,
2013-02-12 20:12:00,46.0,42.0,30.33,ESE,115,0.0,0.0,86,0.00,,CLR,0.00,VWS V14.01,2013-02-13 04:12:00,
2013-02-12 20:18:00,45.6,41.7,30.33,ESE,115,0.0,0.0,86,0.00,,CLR,0.00,VWS V14.01,2013-02-13 04:18:00,
2013-02-12 20:23:00,45.3,41.7,30.33,ESE,115,0.0,0.0,87,0.00,,CLR,0.00,VWS V14.01,2013-02-13 04:23:00,
2013-02-12 20:28:00,45.1,41.8,30.33,ESE,115,0.0,0.0,88,0.00,,CLR,0.00,VWS V14.01,2013-02-13 04:28:00,
2013-02-12 20:33:00,45.0,41.7,30.33,ESE,115,0.0,0.0,88,0.00,,CLR,0.00,VWS V14.01,2013-02-13 04:33:00,
2013-02-12 20:38:00,44.7,41.4,30.33,ESE,115,0.0,0.0,88,0.00,,CLR,0.00,VWS V14.01,2013-02-13 04:38:00,
2013-02-12 20:43:00,44.7,41.4,30.33,ESE,117,0.0,1.9,88,0.00,,CLR,0.00,VWS V14.01,2013-02-13 04:43:00,
2013-02-12 20:48:00,44.8,41.5,30.33,ESE,115,0.0,1.9,88,0.00,,CLR,0.00,VWS V14.01,2013-02-13 04:48:00,
2013-02-12 20:53:00,44.7,41.1,30.33,ESE,105,0.0,1.9,87,0.00,,CLR,0.00,VWS V14.01,2013-02-13 04:53:00,
2013-02-12 20:58:00,44.7,41.1,30.33,ESE,103,0.0,1.9,87,0.00,,CLR,0.00,VWS V14.01,2013-02-13 04:58:00,
2013-02-12 21:00:00,44.6,41.0,30.33,ESE,103,0.0,1.9,87,0.00,,CLR,0.00,VWS V14.01,2013-02-13 05:00:00,
2013-02-12 21:01:00,44.5,40.9,30.33,ESE,116,1.9,3.8,87,0.00,,CLR,0.00,VWS V14.01,2013-02-13 05:01:00,
2013-02-12 21:03:00,44.5,40.9,30.33,SE,134,0.0,3.8,87,0.00,,CLR,0.00,VWS V14.01,2013-02-13 05:03:00,
2013-02-12 21:08:00,44.4,40.8,30.33,SE,125,0.0,3.8,87,0.00,,CLR,0.00,VWS V14.01,2013-02-13 05:08:00,
2013-02-12 21:13:00,44.4,40.8,30.34,ESE,120,1.9,3.8,87,0.00,,CLR,0.00,VWS V14.01,2013-02-13 05:13:00,
2013-02-12 21:18:00,44.3,40.7,30.34,ESE,120,0.0,3.8,87,0.00,,CLR,0.00,VWS V14.01,2013-02-13 05:18:00,
2013-02-12 21:23:00,44.1,40.5,30.33,East,86,0.0,3.8,87,0.00,,CLR,0.00,VWS V14.01,2013-02-13 05:23:00,
2013-02-12 21:28:00,44.0,40.4,30.33,East,86,0.0,3.8,87,0.00,,CLR,0.00,VWS V14.01,2013-02-13 05:28:00,
2013-02-12 21:33:00,43.8,40.2,30.33,East,86,0.0,1.9,87,0.00,,CLR,0.00,VWS V14.01,2013-02-13 05:33:00,
2013-02-12 21:38:00,43.7,40.1,30.33,East,99,0.0,3.8,87,0.00,,CLR,0.00,VWS V14.01,2013-02-13 05:38:00,
2013-02-12 21:43:00,43.5,39.9,30.33,East,99,0.0,3.8,87,0.00,,CLR,0.00,VWS V14.01,2013-02-13 05:43:00,
2013-02-12 21:48:00,43.4,39.8,30.33,East,99,0.0,3.8,87,0.00,,CLR,0.00,VWS V14.01,2013-02-13 05:48:00,
2013-02-12 21:53:00,43.2,39.6,30.33,ESE,111,0.0,3.8,87,0.00,,CLR,0.00,VWS V14.01,2013-02-13 05:53:00,
2013-02-12 21:58:00,43.0,39.4,30.33,SE,125,0.0,3.8,87,0.00,,CLR,0.00,VWS V14.01,2013-02-13 05:58:00,
2013-02-12 22:03:00,42.9,39.6,30.33,SE,126,0.0,0.0,88,0.00,,,0.00,VWS V14.01,2013-02-13 06:03:00,
2013-02-12 22:08:00,42.9,39.9,30.33,SE,125,0.0,1.9,89,0.00,,,0.00,VWS V14.01,2013-02-13 06:08:00,
2013-02-12 22:13:00,43.0,40.0,30.33,SE,125,0.0,1.9,89,0.00,,,0.00,VWS V14.01,2013-02-13 06:13:00,
2013-02-12 22:18:00,42.9,39.6,30.33,SE,126,0.0,1.9,88,0.00,,,0.00,VWS V14.01,2013-02-13 06:18:00,
2013-02-12 22:24:00,42.6,39.3,30.33,SE,125,0.0,1.9,88,0.00,,,0.00,VWS V14.01,2013-02-13 06:24:00,
2013-02-12 22:29:00,42.2,38.6,30.34,SE,125,0.0,1.9,87,0.00,,,0.00,VWS V14.01,2013-02-13 06:29:00,
2013-02-12 22:34:00,41.8,38.5,30.34,SE,125,0.0,1.9,88,0.00,,,0.00,VWS V14.01,2013-02-13 06:34:00,
2013-02-12 22:39:00,41.5,38.2,30.34,SE,125,0.0,1.9,88,0.00,,,0.00,VWS V14.01,2013-02-13 06:39:00,
2013-02-12 22:44:00,41.3,38.6,30.34,SE,125,0.0,1.9,90,0.00,,,0.00,VWS V14.01,2013-02-13 06:44:00,
2013-02-12 22:49:00,41.3,38.6,30.34,ESE,119,0.0,3.8,90,0.00,,,0.00,VWS V14.01,2013-02-13 06:49:00,
2013-02-12 22:54:00,41.2,38.2,30.34,ESE,119,0.0,3.8,89,0.00,,,0.00,VWS V14.01,2013-02-13 06:54:00,
2013-02-12 22:59:00,41.2,38.2,30.34,ESE,119,1.9,3.8,89,0.00,,,0.00,VWS V14.01,2013-02-13 06:59:00,
2013-02-12 23:04:00,41.1,37.8,30.34,ESE,117,0.0,3.8,88,0.00,,,0.00,VWS V14.01,2013-02-13 07:04:00,
2013-02-12 23:09:00,40.8,37.5,30.34,ESE,117,0.0,3.8,88,0.00,,,0.00,VWS V14.01,2013-02-13 07:09:00,
2013-02-12 23:14:00,40.7,37.4,30.34,ESE,117,1.9,3.8,88,0.00,,,0.00,VWS V14.01,2013-02-13 07:14:00,
2013-02-12 23:19:00,40.6,37.3,30.34,East,91,1.9,3.8,88,0.00,,,0.00,VWS V14.01,2013-02-13 07:19:00,
2013-02-12 23:24:00,40.4,37.1,30.34,ESE,105,0.0,3.8,88,0.00,,,0.00,VWS V14.01,2013-02-13 07:24:00,
2013-02-12 23:29:00,40.3,37.0,30.34,East,101,0.0,3.8,88,0.00,,,0.00,VWS V14.01,2013-02-13 07:29:00,
2013-02-12 23:34:00,40.0,36.7,30.34,ESE,113,0.0,1.9,88,0.00,,,0.00,VWS V14.01,2013-02-13 07:34:00,
2013-02-12 23:39:00,39.9,36.6,30.34,ESE,111,0.0,1.9,88,0.00,,,0.00,VWS V14.01,2013-02-13 07:39:00,
2013-02-12 23:44:00,39.7,36.7,30.34,ESE,111,0.0,1.9,89,0.00,,,0.00,VWS V14.01,2013-02-13 07:44:00,
2013-02-12 23:49:00,39.5,36.5,30.34,ESE,112,0.0,1.9,89,0.00,,,0.00,VWS V14.01,2013-02-13 07:49:00,
2013-02-12 23:55:00,39.4,36.7,30.34,ESE,112,0.0,1.9,90,0.00,,,0.00,VWS V14.01,2013-02-13 07:55:00,